createdAt,value
2018-03-25T00:01:15.690Z,1.71
2018-03-25T00:03:44.708Z,1.73
2018-03-25T00:06:13.713Z,1.66
2018-03-25T00:08:42.871Z,1.63
2018-03-25T00:11:11.937Z,1.73
2018-03-25T00:13:41.400Z,1.70
2018-03-25T00:16:10.537Z,1.75
2018-03-25T00:18:39.741Z,1.69
2018-03-25T00:21:08.950Z,1.83
2018-03-25T00:23:38.037Z,1.74
2018-03-25T00:26:07.239Z,1.65
2018-03-25T00:28:36.262Z,1.60
2018-03-25T00:31:05.189Z,1.61
2018-03-25T00:33:34.235Z,1.84
2018-03-25T00:36:03.358Z,1.75
2018-03-25T00:38:32.441Z,1.85
2018-03-25T00:41:01.430Z,1.87
2018-03-25T00:43:30.546Z,1.77
2018-03-25T00:45:59.730Z,1.87
2018-03-25T00:48:29.088Z,1.74
2018-03-25T00:50:58.211Z,1.66
2018-03-25T00:53:27.425Z,1.70
2018-03-25T00:55:56.617Z,1.78
2018-03-25T00:58:25.857Z,1.66
2018-03-25T01:00:54.836Z,1.64
2018-03-25T01:03:23.970Z,1.65
2018-03-25T01:05:53.109Z,1.71
2018-03-25T01:08:22.105Z,1.74
2018-03-25T01:10:51.567Z,1.77
2018-03-25T01:13:20.690Z,1.78
2018-03-25T01:16:01.231Z,1.83
2018-03-25T01:18:30.117Z,1.78
2018-03-25T01:20:59.316Z,1.81
2018-03-25T01:23:28.509Z,1.77
2018-03-25T01:25:57.974Z,1.84
2018-03-25T01:28:27.010Z,1.84
2018-03-25T01:30:56.105Z,1.69
2018-03-25T01:33:25.301Z,1.83
2018-03-25T01:35:54.412Z,1.61
2018-03-25T01:38:23.637Z,1.72
2018-03-25T01:40:52.798Z,1.85
2018-03-25T01:43:21.992Z,1.75
2018-03-25T01:45:51.841Z,1.75
2018-03-25T01:48:21.012Z,1.63
2018-03-25T01:50:50.202Z,1.60
2018-03-25T01:53:19.427Z,1.65
2018-03-25T01:55:48.607Z,1.71
2018-03-25T01:58:17.802Z,1.77
2018-03-25T02:00:46.994Z,1.76
2018-03-25T02:03:16.099Z,1.82
2018-03-25T02:05:45.295Z,1.86
2018-03-25T02:08:20.602Z,1.87
2018-03-25T02:10:49.898Z,1.93
2018-03-25T02:13:24.964Z,1.92
2018-03-25T02:15:57.143Z,1.96
2018-03-25T02:18:26.405Z,1.99
2018-03-25T02:20:55.539Z,2.10
2018-03-25T02:23:24.871Z,1.99
2018-03-25T02:25:54.007Z,1.97
2018-03-25T02:28:23.034Z,2.00
2018-03-25T02:30:52.045Z,2.02
2018-03-25T02:33:21.314Z,2.02
2018-03-25T02:35:51.699Z,2.07
2018-03-25T02:38:20.798Z,2.13
2018-03-25T02:40:49.845Z,1.99
2018-03-25T02:43:18.938Z,2.05
2018-03-25T02:45:48.170Z,2.12
2018-03-25T02:48:17.325Z,2.16
2018-03-25T02:50:46.525Z,2.21
2018-03-25T02:53:15.709Z,2.22
2018-03-25T02:55:45.017Z,2.26
2018-03-25T02:58:14.233Z,2.30
2018-03-25T03:00:43.253Z,2.32
2018-03-25T03:03:12.273Z,2.36
2018-03-25T03:05:41.331Z,2.34
2018-03-25T03:08:10.537Z,2.36
2018-03-25T03:10:39.697Z,2.32
2018-03-25T03:13:08.997Z,2.33
2018-03-25T03:15:38.178Z,2.32
2018-03-25T03:18:07.409Z,2.33
2018-03-25T03:20:36.451Z,2.31
2018-03-25T03:23:05.643Z,2.35
2018-03-25T03:25:34.577Z,2.40
2018-03-25T03:28:03.573Z,2.44
2018-03-25T03:30:35.073Z,2.49
2018-03-25T03:33:04.116Z,2.47
2018-03-25T03:35:33.322Z,2.45
2018-03-25T03:38:02.573Z,2.42
2018-03-25T03:40:31.714Z,2.44
2018-03-25T03:43:00.872Z,2.41
2018-03-25T03:45:30.034Z,2.40
2018-03-25T03:47:58.937Z,2.43
2018-03-25T03:50:27.993Z,2.47
2018-03-25T03:52:57.295Z,2.48
2018-03-25T03:55:26.552Z,2.49
2018-03-25T03:57:55.699Z,2.53
2018-03-25T04:00:25.048Z,2.60
2018-03-25T04:02:54.241Z,2.66
2018-03-25T04:05:23.529Z,2.66
2018-03-25T04:07:52.695Z,2.67
2018-03-25T04:10:21.737Z,2.70
2018-03-25T04:12:51.021Z,2.73
2018-03-25T04:15:20.190Z,2.72
2018-03-25T04:17:49.128Z,2.71
2018-03-25T04:20:18.295Z,2.72
2018-03-25T04:22:47.510Z,2.78
2018-03-25T04:25:16.647Z,2.76
2018-03-25T04:27:45.775Z,2.78
2018-03-25T04:30:15.180Z,2.81
2018-03-25T04:32:44.301Z,2.85
2018-03-25T04:35:13.349Z,2.90
2018-03-25T04:37:42.385Z,2.94
2018-03-25T04:40:11.478Z,3.07
2018-03-25T04:42:40.845Z,2.99
2018-03-25T04:45:10.085Z,3.01
2018-03-25T04:47:39.287Z,3.06
2018-03-25T04:50:08.442Z,3.24
2018-03-25T04:52:37.686Z,3.36
2018-03-25T04:55:06.630Z,3.25
2018-03-25T04:57:35.685Z,3.16
2018-03-25T05:00:04.898Z,3.06
2018-03-25T05:02:34.121Z,3.13
2018-03-25T05:05:03.366Z,3.17
2018-03-25T05:07:32.561Z,3.23
2018-03-25T05:10:01.722Z,3.24
2018-03-25T05:12:30.926Z,3.18
2018-03-25T05:15:00.173Z,3.24
2018-03-25T05:17:29.309Z,3.30
2018-03-25T05:19:58.405Z,3.37
2018-03-25T05:22:27.665Z,3.43
2018-03-25T05:24:56.845Z,3.61
2018-03-25T05:27:26.005Z,3.68
2018-03-25T05:29:55.161Z,3.46
2018-03-25T05:32:24.443Z,3.41
2018-03-25T05:34:53.598Z,3.32
2018-03-25T05:37:22.808Z,3.33
2018-03-25T05:39:52.003Z,3.38
2018-03-25T05:42:21.960Z,3.41
2018-03-25T05:44:51.193Z,3.28
2018-03-25T05:47:20.211Z,3.36
2018-03-25T05:49:49.234Z,3.20
2018-03-25T05:52:18.400Z,3.34
2018-03-25T05:54:47.533Z,3.36
2018-03-25T05:57:16.731Z,3.37
2018-03-25T05:59:46.093Z,3.43
2018-03-25T06:02:15.298Z,3.44
2018-03-25T06:04:44.497Z,3.41
2018-03-25T06:07:13.726Z,3.40
2018-03-25T06:09:43.007Z,3.46
2018-03-25T06:12:12.090Z,3.58
2018-03-25T06:14:41.129Z,3.64
2018-03-25T06:17:10.274Z,3.75
2018-03-25T06:19:39.379Z,3.90
2018-03-25T06:22:08.519Z,4.02
2018-03-25T06:24:37.477Z,3.75
2018-03-25T06:27:06.767Z,3.74
2018-03-25T06:29:35.805Z,3.56
2018-03-25T06:32:04.961Z,3.54
2018-03-25T06:34:34.097Z,3.70
2018-03-25T06:37:03.222Z,3.60
2018-03-25T06:39:32.268Z,3.36
2018-03-25T06:42:01.360Z,3.56
2018-03-25T06:44:30.384Z,3.67
2018-03-25T06:46:59.436Z,3.53
2018-03-25T06:49:28.526Z,3.57
2018-03-25T06:51:57.776Z,3.69
2018-03-25T06:54:26.897Z,3.89
2018-03-25T06:56:55.869Z,3.78
2018-03-25T06:59:24.862Z,3.93
2018-03-25T07:01:54.176Z,4.09
2018-03-25T07:04:23.255Z,3.89
2018-03-25T07:06:52.506Z,3.97
2018-03-25T07:09:21.723Z,4.08
2018-03-25T07:11:50.889Z,4.09
2018-03-25T07:14:20.129Z,4.06
2018-03-25T07:16:49.184Z,4.12
2018-03-25T07:19:18.381Z,4.01
2018-03-25T07:21:47.410Z,4.17
2018-03-25T07:24:16.841Z,4.16
2018-03-25T07:26:45.885Z,4.55
2018-03-25T07:29:14.825Z,4.48
2018-03-25T07:31:43.806Z,4.59
2018-03-25T07:34:12.771Z,4.53
2018-03-25T07:36:41.743Z,4.76
2018-03-25T07:39:10.663Z,5.13
2018-03-25T07:41:39.669Z,4.64
2018-03-25T07:44:08.800Z,4.61
2018-03-25T07:46:37.776Z,5.07
2018-03-25T07:49:07.052Z,4.96
2018-03-25T07:51:36.586Z,5.01
2018-03-25T07:54:05.586Z,5.07
2018-03-25T07:56:34.598Z,5.39
2018-03-25T07:59:03.520Z,5.18
2018-03-25T08:01:32.503Z,5.11
2018-03-25T08:04:01.606Z,5.65
2018-03-25T08:06:30.591Z,5.47
2018-03-25T08:08:59.559Z,5.45
2018-03-25T08:11:28.600Z,5.46
2018-03-25T08:13:57.633Z,5.60
2018-03-25T08:16:26.809Z,6.01
2018-03-25T08:18:55.721Z,5.86
2018-03-25T08:21:24.674Z,5.82
2018-03-25T08:23:53.844Z,5.77
2018-03-25T08:26:22.875Z,5.75
2018-03-25T08:28:51.945Z,6.81
2018-03-25T08:31:21.077Z,6.71
2018-03-25T08:33:50.149Z,6.71
2018-03-25T08:36:19.226Z,7.78
2018-03-25T08:38:48.629Z,6.17
2018-03-25T08:41:17.662Z,6.46
2018-03-25T08:43:46.714Z,6.53
2018-03-25T08:46:15.859Z,6.85
2018-03-25T08:48:44.818Z,7.11
2018-03-25T08:51:13.814Z,7.21
2018-03-25T08:53:42.841Z,7.42
2018-03-25T08:56:12.201Z,7.66
2018-03-25T08:58:41.601Z,8.64
2018-03-25T09:01:10.733Z,8.27
2018-03-25T09:03:39.801Z,8.12
2018-03-25T09:06:08.969Z,8.41
2018-03-25T09:08:38.012Z,8.41
2018-03-25T09:11:06.993Z,7.57
2018-03-25T09:13:36.017Z,7.95
2018-03-25T09:16:04.978Z,7.59
2018-03-25T09:18:34.020Z,7.08
2018-03-25T09:21:02.914Z,7.06
2018-03-25T09:23:31.991Z,7.58
2018-03-25T09:26:01.253Z,7.30
2018-03-25T09:31:11.482Z,7.99
2018-03-25T09:33:40.581Z,6.92
2018-03-25T09:36:09.827Z,7.27
2018-03-25T09:38:38.807Z,7.76
2018-03-25T09:41:07.745Z,7.71
2018-03-25T09:43:36.798Z,7.64
2018-03-25T09:46:05.755Z,7.24
2018-03-25T09:48:34.707Z,7.95
2018-03-25T09:51:03.778Z,8.54
2018-03-25T09:53:32.815Z,9.29
2018-03-25T09:56:01.827Z,7.43
2018-03-25T09:58:30.886Z,7.15
2018-03-25T10:01:05.642Z,6.86
2018-03-25T10:03:34.649Z,7.01
2018-03-25T10:06:03.601Z,6.87
2018-03-25T10:08:32.731Z,6.61
2018-03-25T10:11:01.711Z,6.78
2018-03-25T10:13:30.714Z,6.75
2018-03-25T10:15:59.821Z,7.15
2018-03-25T10:18:28.831Z,7.33
2018-03-25T10:20:57.831Z,7.05
2018-03-25T10:23:26.871Z,7.50
2018-03-25T10:25:55.887Z,6.74
2018-03-25T10:28:24.869Z,7.06
2018-03-25T10:30:53.967Z,7.30
2018-03-25T10:33:23.068Z,7.36
2018-03-25T10:35:52.361Z,6.89
2018-03-25T10:38:21.381Z,6.92
2018-03-25T10:40:50.510Z,7.78
2018-03-25T10:43:19.693Z,6.63
2018-03-25T10:45:49.519Z,6.66
2018-03-25T10:48:18.739Z,7.09
2018-03-25T10:50:47.741Z,7.05
2018-03-25T10:53:16.758Z,7.64
2018-03-25T10:55:45.665Z,7.75
2018-03-25T10:58:14.624Z,7.80
2018-03-25T11:00:43.651Z,8.01
2018-03-25T11:03:12.865Z,8.34
2018-03-25T11:05:41.918Z,9.56
2018-03-25T11:08:11.011Z,9.87
2018-03-25T11:10:40.109Z,8.99
2018-03-25T11:13:09.198Z,9.15
2018-03-25T11:15:38.241Z,9.21
2018-03-25T11:18:07.451Z,9.31
2018-03-25T11:20:36.902Z,8.76
2018-03-25T11:23:05.998Z,10.20
2018-03-25T11:25:35.049Z,9.84
2018-03-25T11:28:04.140Z,9.55
2018-03-25T11:30:33.317Z,9.81
2018-03-25T11:33:02.386Z,10.88
2018-03-25T11:35:31.728Z,10.93
2018-03-25T11:38:00.786Z,9.93
2018-03-25T11:40:29.917Z,10.35
2018-03-25T11:42:59.013Z,10.08
2018-03-25T11:45:28.091Z,10.00
2018-03-25T11:47:57.006Z,9.03
2018-03-25T11:50:25.983Z,10.47
2018-03-25T11:52:55.252Z,9.63
2018-03-25T11:55:24.187Z,11.07
2018-03-25T11:57:53.249Z,10.36
2018-03-25T12:00:22.571Z,10.53
2018-03-25T12:02:51.895Z,10.54
2018-03-25T12:05:21.030Z,10.87
2018-03-25T12:07:50.197Z,10.91
2018-03-25T12:10:19.277Z,10.69
2018-03-25T12:12:48.402Z,10.27
2018-03-25T12:15:18.222Z,10.59
2018-03-25T12:17:47.248Z,9.82
2018-03-25T12:20:16.380Z,10.56
2018-03-25T12:22:45.881Z,10.67
2018-03-25T12:25:15.140Z,8.85
2018-03-25T12:27:44.233Z,9.45
2018-03-25T12:30:13.474Z,9.92
2018-03-25T12:32:42.678Z,10.83
2018-03-25T12:35:11.873Z,11.08
2018-03-25T12:37:41.023Z,9.92
2018-03-25T12:40:10.169Z,9.70
2018-03-25T12:42:39.302Z,10.71
2018-03-25T12:45:08.524Z,9.56
2018-03-25T12:47:37.658Z,9.29
2018-03-25T12:50:06.861Z,10.02
2018-03-25T12:52:36.119Z,10.52
2018-03-25T12:55:05.314Z,10.38
2018-03-25T12:57:34.702Z,8.81
2018-03-25T13:00:03.805Z,8.96
2018-03-25T13:02:32.963Z,9.66
2018-03-25T13:05:02.247Z,8.70
2018-03-25T13:07:31.319Z,8.98
2018-03-25T13:10:00.505Z,8.42
2018-03-25T13:12:29.686Z,8.99
2018-03-25T13:14:58.692Z,9.04
2018-03-25T13:17:27.937Z,8.94
2018-03-25T13:19:57.077Z,8.35
2018-03-25T13:22:26.124Z,8.83
2018-03-25T13:24:55.171Z,8.67
2018-03-25T13:27:24.299Z,9.18
2018-03-25T13:29:53.375Z,9.64
2018-03-25T13:32:22.652Z,8.43
2018-03-25T13:34:51.859Z,8.13
2018-03-25T13:37:21.014Z,8.70
2018-03-25T13:39:50.034Z,8.75
2018-03-25T13:42:19.109Z,9.14
2018-03-25T13:44:48.291Z,8.70
2018-03-25T13:47:17.631Z,8.97
2018-03-25T13:49:46.760Z,8.73
2018-03-25T13:52:15.865Z,9.00
2018-03-25T13:54:44.935Z,8.40
2018-03-25T13:57:13.953Z,8.80
2018-03-25T13:59:43.038Z,8.97
2018-03-25T14:02:12.055Z,9.20
2018-03-25T14:04:41.209Z,8.86
2018-03-25T14:07:10.327Z,8.70
2018-03-25T14:09:39.327Z,8.94
2018-03-25T14:12:08.410Z,8.52
2018-03-25T14:14:37.442Z,8.39
2018-03-25T14:17:06.622Z,8.20
2018-03-25T14:19:36.445Z,8.50
2018-03-25T14:22:05.542Z,8.69
2018-03-25T14:24:34.646Z,8.40
2018-03-25T14:27:03.669Z,8.78
2018-03-25T14:29:32.803Z,8.52
2018-03-25T14:32:02.129Z,8.27
2018-03-25T14:34:31.119Z,8.35
2018-03-25T14:37:00.086Z,8.42
2018-03-25T14:39:29.190Z,8.38
2018-03-25T14:41:58.283Z,8.61
2018-03-25T14:44:27.291Z,7.98
2018-03-25T14:46:56.205Z,8.22
2018-03-25T14:49:25.306Z,8.43
2018-03-25T14:51:54.276Z,8.10
2018-03-25T14:54:23.274Z,8.78
2018-03-25T14:56:52.418Z,8.62
2018-03-25T14:59:21.481Z,8.28
2018-03-25T15:01:50.521Z,8.28
2018-03-25T15:04:19.480Z,8.31
2018-03-25T15:06:48.485Z,8.21
2018-03-25T15:09:17.765Z,8.12
2018-03-25T15:11:46.921Z,7.79
2018-03-25T15:14:16.012Z,8.04
2018-03-25T15:16:45.226Z,8.34
2018-03-25T15:19:14.179Z,8.16
2018-03-25T15:21:43.146Z,8.46
2018-03-25T15:24:12.349Z,8.29
2018-03-25T15:26:41.457Z,8.22
2018-03-25T15:29:10.516Z,8.25
2018-03-25T15:31:39.489Z,8.38
2018-03-25T15:34:08.518Z,8.26
2018-03-25T15:36:37.571Z,8.16
2018-03-25T15:39:06.589Z,8.01
2018-03-25T15:41:35.537Z,8.26
2018-03-25T15:44:04.541Z,8.05
2018-03-25T15:46:33.526Z,8.02
2018-03-25T15:49:02.635Z,7.97
2018-03-25T15:51:31.813Z,7.54
2018-03-25T15:54:00.826Z,7.77
2018-03-25T15:56:29.773Z,7.71
2018-03-25T15:58:58.918Z,8.55
2018-03-25T16:01:27.910Z,8.35
2018-03-25T16:03:56.981Z,7.77
2018-03-25T16:06:25.939Z,7.98
2018-03-25T16:08:55.094Z,8.31
2018-03-25T16:11:24.063Z,8.51
2018-03-25T16:13:53.343Z,8.17
2018-03-25T16:16:22.487Z,7.85
2018-03-25T16:18:51.447Z,8.18
2018-03-25T16:21:20.977Z,8.07
2018-03-25T16:23:50.311Z,8.41
2018-03-25T16:26:19.429Z,7.76
2018-03-25T16:28:48.539Z,7.51
2018-03-25T16:31:17.883Z,7.79
2018-03-25T16:33:46.982Z,8.32
2018-03-25T16:36:15.983Z,8.16
2018-03-25T16:38:44.856Z,7.57
2018-03-25T16:41:13.935Z,7.54
2018-03-25T16:43:42.843Z,7.52
2018-03-25T16:46:11.807Z,7.58
2018-03-25T16:48:40.886Z,7.86
2018-03-25T16:51:10.019Z,7.85
2018-03-25T16:53:39.055Z,7.65
2018-03-25T16:56:08.162Z,7.99
2018-03-25T16:58:37.316Z,7.56
2018-03-25T17:01:06.511Z,7.35
2018-03-25T17:03:35.468Z,7.46
2018-03-25T17:06:04.420Z,7.59
2018-03-25T17:08:33.609Z,7.65
2018-03-25T17:11:02.636Z,7.48
2018-03-25T17:13:31.657Z,7.46
2018-03-25T17:16:00.666Z,7.63
2018-03-25T17:18:29.585Z,7.77
2018-03-25T17:20:58.670Z,7.82
2018-03-25T17:23:27.757Z,7.40
2018-03-25T17:25:56.753Z,7.73
2018-03-25T17:28:25.742Z,7.40
2018-03-25T17:30:55.107Z,7.23
2018-03-25T17:33:24.261Z,7.25
2018-03-25T17:35:53.379Z,7.51
2018-03-25T17:38:22.394Z,7.60
2018-03-25T17:40:51.369Z,7.60
2018-03-25T17:43:20.322Z,7.65
2018-03-25T17:45:49.294Z,7.23
2018-03-25T17:48:18.213Z,7.43
2018-03-25T17:50:47.306Z,7.65
2018-03-25T17:53:16.331Z,7.70
2018-03-25T17:55:45.424Z,7.60
2018-03-25T17:58:14.442Z,7.12
2018-03-25T18:00:43.551Z,7.19
2018-03-25T18:03:12.692Z,6.91
2018-03-25T18:05:43.227Z,7.17
2018-03-25T18:08:12.253Z,7.43
2018-03-25T18:10:41.308Z,7.25
2018-03-25T18:13:10.426Z,7.06
2018-03-25T18:15:39.462Z,7.08
2018-03-25T18:18:08.447Z,7.09
2018-03-25T18:20:37.413Z,7.22
2018-03-25T18:23:06.398Z,7.16
2018-03-25T18:25:35.327Z,7.14
2018-03-25T18:28:04.439Z,7.54
2018-03-25T18:30:33.493Z,7.76
2018-03-25T18:33:02.494Z,7.51
2018-03-25T18:35:31.505Z,7.40
2018-03-25T18:38:00.555Z,7.30
2018-03-25T18:40:29.669Z,7.57
2018-03-25T18:42:58.825Z,7.24
2018-03-25T18:45:28.000Z,7.53
2018-03-25T18:47:57.088Z,7.98
2018-03-25T18:50:26.153Z,8.41
2018-03-25T18:52:55.148Z,8.11
2018-03-25T18:55:24.280Z,7.60
2018-03-25T18:57:53.259Z,7.37
2018-03-25T19:00:22.249Z,7.36
2018-03-25T19:02:51.245Z,7.55
2018-03-25T19:05:20.299Z,7.88
2018-03-25T19:07:49.432Z,8.21
2018-03-25T19:10:18.466Z,7.80
2018-03-25T19:12:47.542Z,7.67
2018-03-25T19:15:16.617Z,8.04
2018-03-25T19:17:45.617Z,7.97
2018-03-25T19:20:14.834Z,7.96
2018-03-25T19:22:43.997Z,7.90
2018-03-25T19:25:13.045Z,8.05
2018-03-25T19:27:42.854Z,8.35
2018-03-25T19:30:11.913Z,8.17
2018-03-25T19:32:40.968Z,7.88
2018-03-25T19:35:09.938Z,7.92
2018-03-25T19:37:38.980Z,7.94
2018-03-25T19:40:08.027Z,7.88
2018-03-25T19:42:37.055Z,7.66
2018-03-25T19:45:06.136Z,7.97
2018-03-25T19:47:35.277Z,7.75
2018-03-25T19:50:04.378Z,7.50
2018-03-25T19:52:33.673Z,7.28
2018-03-25T19:55:02.834Z,7.23
2018-03-25T19:57:31.819Z,7.19
2018-03-25T20:00:00.822Z,7.06
2018-03-25T20:02:29.787Z,7.30
2018-03-25T20:04:58.741Z,7.19
2018-03-25T20:07:27.955Z,7.60
2018-03-25T20:09:56.983Z,7.42
2018-03-25T20:12:25.959Z,7.45
2018-03-25T20:14:54.938Z,7.80
2018-03-25T20:17:23.975Z,7.54
2018-03-25T20:19:53.949Z,8.06
2018-03-25T20:22:22.985Z,7.90
2018-03-25T20:24:52.042Z,7.71
2018-03-25T20:27:21.013Z,7.59
2018-03-25T20:29:49.965Z,7.76
2018-03-25T20:32:18.921Z,7.20
2018-03-25T20:34:47.954Z,7.28
2018-03-25T20:37:17.018Z,7.14
2018-03-25T20:39:46.038Z,7.17
2018-03-25T20:42:15.038Z,7.15
2018-03-25T20:44:44.161Z,7.25
2018-03-25T20:47:13.275Z,7.25
2018-03-25T20:49:42.205Z,7.50
2018-03-25T20:52:11.155Z,7.69
2018-03-25T20:54:40.154Z,7.79
2018-03-25T20:57:09.082Z,7.77
2018-03-25T20:59:38.174Z,7.36
2018-03-25T21:02:07.149Z,7.18
2018-03-25T21:04:36.157Z,7.10
2018-03-25T21:07:05.279Z,7.02
2018-03-25T21:09:34.301Z,7.17
2018-03-25T21:12:03.331Z,7.35
2018-03-25T21:14:32.407Z,7.05
2018-03-25T21:17:01.451Z,7.05
2018-03-25T21:19:30.656Z,7.13
2018-03-25T21:21:59.645Z,7.03
2018-03-25T21:24:28.687Z,6.99
2018-03-25T21:26:57.738Z,7.01
2018-03-25T21:29:26.718Z,7.06
2018-03-25T21:31:55.929Z,7.04
2018-03-25T21:34:24.965Z,7.13
2018-03-25T21:36:53.986Z,7.18
2018-03-25T21:39:22.912Z,7.34
2018-03-25T21:41:52.045Z,7.18
2018-03-25T21:44:21.253Z,7.39
2018-03-25T21:46:50.355Z,7.28
2018-03-25T21:49:19.374Z,7.29
2018-03-25T21:51:48.461Z,7.19
2018-03-25T21:54:17.529Z,7.43
2018-03-25T21:56:46.565Z,7.31
2018-03-25T21:59:15.839Z,7.40
2018-03-25T22:01:45.082Z,7.46
2018-03-25T22:04:14.117Z,7.38
2018-03-25T22:06:43.318Z,7.42
2018-03-25T22:09:12.369Z,7.50
2018-03-25T22:11:41.341Z,7.57
2018-03-25T22:14:10.498Z,7.82
2018-03-25T22:16:40.314Z,7.57
2018-03-25T22:19:09.470Z,7.48
2018-03-25T22:21:38.749Z,7.24
2018-03-25T22:24:08.529Z,7.26
2018-03-25T22:26:37.577Z,7.33
2018-03-25T22:29:06.617Z,7.87
2018-03-25T22:31:35.625Z,8.15
2018-03-25T22:34:04.860Z,8.12
2018-03-25T22:36:34.027Z,7.80
2018-03-25T22:39:03.238Z,7.71
2018-03-25T22:41:32.274Z,7.76
2018-03-25T22:44:01.349Z,7.79
2018-03-25T22:46:30.447Z,7.62
2018-03-25T22:48:59.595Z,7.70
2018-03-25T22:51:28.562Z,7.72
2018-03-25T22:53:57.546Z,7.65
2018-03-25T22:56:26.780Z,7.55
2018-03-25T22:58:55.773Z,7.44
2018-03-25T23:01:24.898Z,7.44
2018-03-25T23:03:53.971Z,7.41
2018-03-25T23:06:23.085Z,7.23
2018-03-25T23:11:32.354Z,7.54
2018-03-25T23:14:01.645Z,7.13
2018-03-25T23:16:30.809Z,7.09
2018-03-25T23:18:59.802Z,6.98
2018-03-25T23:21:28.742Z,7.12
2018-03-25T23:23:57.925Z,7.19
2018-03-25T23:26:26.985Z,7.23
2018-03-25T23:28:56.069Z,7.59
2018-03-25T23:31:25.224Z,8.05
2018-03-25T23:33:54.337Z,7.51
2018-03-25T23:36:23.365Z,7.68
2018-03-25T23:38:52.421Z,7.27
2018-03-25T23:41:21.507Z,7.28
2018-03-25T23:43:50.797Z,7.28
2018-03-25T23:46:20.214Z,7.31
2018-03-25T23:48:49.259Z,7.63
2018-03-25T23:51:18.389Z,7.63
2018-03-25T23:53:47.590Z,7.45
2018-03-25T23:56:16.755Z,7.47
2018-03-25T23:58:45.772Z,7.84
